createdAt,value
2018-09-10T00:05:02.339Z,3.13
2018-09-10T00:10:06.808Z,3.40
2018-09-10T00:15:10.211Z,2.93
2018-09-10T00:20:14.758Z,3.10
2018-09-10T00:25:18.106Z,3.70
2018-09-10T00:30:21.525Z,3.00
2018-09-10T00:35:24.933Z,3.67
2018-09-10T00:40:28.347Z,3.10
2018-09-10T00:45:31.782Z,3.30
2018-09-10T00:50:35.138Z,3.50
2018-09-10T00:55:38.559Z,3.30
2018-09-10T01:00:42.036Z,3.30
2018-09-10T01:05:45.402Z,3.07
2018-09-10T01:10:48.807Z,3.33
2018-09-10T01:15:52.492Z,3.30
2018-09-10T01:20:55.950Z,3.27
2018-09-10T01:25:59.529Z,3.13
2018-09-10T01:31:02.935Z,3.40
2018-09-10T01:36:07.281Z,3.10
2018-09-10T01:41:11.374Z,3.20
2018-09-10T01:46:14.905Z,3.40
2018-09-10T01:51:18.368Z,3.40
2018-09-10T01:56:21.793Z,3.27
2018-09-10T02:01:25.200Z,3.40
2018-09-10T02:06:28.668Z,3.40
2018-09-10T02:11:32.089Z,3.33
2018-09-10T02:16:35.487Z,3.17
2018-09-10T02:21:38.943Z,3.73
2018-09-10T02:26:42.355Z,3.67
2018-09-10T02:31:45.845Z,3.23
2018-09-10T02:36:49.305Z,3.27
2018-09-10T02:41:52.775Z,3.37
2018-09-10T02:46:56.173Z,3.27
2018-09-10T02:51:59.607Z,3.67
2018-09-10T02:57:03.202Z,3.70
2018-09-10T03:02:06.948Z,3.17
2018-09-10T03:07:10.364Z,3.80
2018-09-10T03:12:14.003Z,3.33
2018-09-10T03:17:17.485Z,3.83
2018-09-10T03:22:20.890Z,4.10
2018-09-10T03:27:24.361Z,3.63
2018-09-10T03:32:27.848Z,3.50
2018-09-10T03:37:31.219Z,3.60
2018-09-10T03:42:34.677Z,3.70
2018-09-10T03:47:38.107Z,3.50
2018-09-10T03:52:41.516Z,3.83
2018-09-10T03:57:45.548Z,3.73
2018-09-10T04:02:49.701Z,3.87
2018-09-10T04:07:53.107Z,4.00
2018-09-10T04:12:56.518Z,4.03
2018-09-10T04:18:00.077Z,4.10
2018-09-10T04:23:03.464Z,4.63
2018-09-10T04:28:06.899Z,4.30
2018-09-10T04:33:10.396Z,4.17
2018-09-10T04:38:13.862Z,4.33
2018-09-10T04:43:17.489Z,4.20
2018-09-10T04:48:21.196Z,4.67
2018-09-10T04:53:24.734Z,4.40
2018-09-10T04:58:29.577Z,4.20
2018-09-10T05:03:33.042Z,3.77
2018-09-10T05:08:36.419Z,4.30
2018-09-10T05:13:40.129Z,4.27
2018-09-10T05:18:43.844Z,3.83
2018-09-10T05:23:47.632Z,3.53
2018-09-10T05:28:51.229Z,3.87
2018-09-10T05:33:54.608Z,4.23
2018-09-10T05:38:58.013Z,4.53
2018-09-10T05:44:01.530Z,5.27
2018-09-10T05:49:04.936Z,5.43
2018-09-10T05:54:08.381Z,5.17
2018-09-10T05:59:12.523Z,5.10
2018-09-10T06:04:15.974Z,5.10
2018-09-10T06:09:19.368Z,4.87
2018-09-10T06:14:22.763Z,4.90
2018-09-10T06:19:26.254Z,4.80
2018-09-10T06:24:29.696Z,4.83
2018-09-10T06:29:33.074Z,4.30
2018-09-10T06:34:36.489Z,4.77
2018-09-10T06:39:39.888Z,3.97
2018-09-10T06:44:43.293Z,3.90
2018-09-10T06:49:46.837Z,3.57
2018-09-10T06:54:50.509Z,3.40
2018-09-10T06:59:54.041Z,3.30
2018-09-10T07:04:57.492Z,3.60
2018-09-10T07:10:01.110Z,3.33
2018-09-10T07:15:04.579Z,3.47
2018-09-10T07:20:08.499Z,3.50
2018-09-10T07:25:12.611Z,3.73
2018-09-10T07:30:16.085Z,3.30
2018-09-10T07:35:20.840Z,3.43
2018-09-10T07:40:24.922Z,2.90
2018-09-10T07:45:28.331Z,3.20
2018-09-10T07:50:31.806Z,3.03
2018-09-10T07:55:35.308Z,2.80
2018-09-10T08:00:38.680Z,3.10
2018-09-10T08:05:42.189Z,3.20
2018-09-10T08:12:14.742Z,3.30
2018-09-10T08:17:18.135Z,3.10
2018-09-10T08:22:21.522Z,2.90
2018-09-10T08:27:24.894Z,2.70
2018-09-10T08:32:29.025Z,2.87
2018-09-10T08:37:33.043Z,2.70
2018-09-10T08:42:36.451Z,3.40
2018-09-10T08:47:39.921Z,2.40
2018-09-10T08:52:43.323Z,2.63
2018-09-10T08:57:46.918Z,2.30
2018-09-10T09:02:50.423Z,2.50
2018-09-10T09:07:53.913Z,2.77
2018-09-10T09:12:57.311Z,2.60
2018-09-10T09:18:00.881Z,2.37
2018-09-10T09:23:04.911Z,2.93
2018-09-10T09:28:08.496Z,2.50
2018-09-10T09:33:11.987Z,1.97
2018-09-10T09:38:20.765Z,2.50
2018-09-10T09:43:29.652Z,2.50
2018-09-10T09:48:33.117Z,2.10
2018-09-10T09:53:37.151Z,2.20
2018-09-10T09:58:40.672Z,2.10
2018-09-10T10:03:49.439Z,2.13
2018-09-10T10:08:53.006Z,2.07
2018-09-10T10:13:56.859Z,2.10
2018-09-10T10:19:01.076Z,2.10
2018-09-10T10:24:04.463Z,2.03
2018-09-10T10:29:07.896Z,2.43
2018-09-10T10:34:11.569Z,1.90
2018-09-10T10:39:15.075Z,2.27
2018-09-10T10:44:18.476Z,2.33
2018-09-10T10:49:22.135Z,1.60
2018-09-10T10:54:25.667Z,1.98
2018-09-10T10:59:29.082Z,2.10
2018-09-10T11:04:32.645Z,1.40
2018-09-10T11:09:36.179Z,1.80
2018-09-10T11:14:39.636Z,2.02
2018-09-10T11:19:43.093Z,2.10
2018-09-10T11:24:46.523Z,1.70
2018-09-10T11:29:49.917Z,1.85
2018-09-10T11:34:53.363Z,1.87
2018-09-10T11:39:56.779Z,1.72
2018-09-10T11:45:00.172Z,2.00
2018-09-10T11:50:03.571Z,1.80
2018-09-10T11:55:07.055Z,1.70
2018-09-10T12:00:10.624Z,1.98
2018-09-10T12:05:14.013Z,1.60
2018-09-10T12:10:18.244Z,1.77
2018-09-10T12:15:21.620Z,2.00
2018-09-10T12:20:25.013Z,1.65
2018-09-10T12:25:28.440Z,1.67
2018-09-10T12:30:32.089Z,1.80
2018-09-10T12:35:35.723Z,1.50
2018-09-10T12:40:41.308Z,1.70
2018-09-10T12:45:44.682Z,1.37
2018-09-10T12:50:48.181Z,1.40
2018-09-10T12:55:51.548Z,1.60
2018-09-10T13:00:54.911Z,1.45
2018-09-10T13:05:58.313Z,1.72
2018-09-10T13:11:01.697Z,2.00
2018-09-10T13:16:05.973Z,1.90
2018-09-10T13:21:09.374Z,1.72
2018-09-10T13:26:12.737Z,1.55
2018-09-10T13:31:16.300Z,1.40
2018-09-10T13:36:19.533Z,1.70
2018-09-10T13:41:22.914Z,1.82
2018-09-10T13:46:29.048Z,1.90
2018-09-10T13:51:32.421Z,2.00
2018-09-10T13:56:35.786Z,1.60
2018-09-10T14:01:39.165Z,1.92
2018-09-10T14:06:42.536Z,2.37
2018-09-10T14:11:45.906Z,2.00
2018-09-10T14:16:49.415Z,1.80
2018-09-10T14:21:52.846Z,1.80
2018-09-10T14:26:56.848Z,1.98
2018-09-10T14:32:00.291Z,1.70
2018-09-10T14:37:04.335Z,1.67
2018-09-10T14:42:08.877Z,1.85
2018-09-10T14:47:14.498Z,1.75
2018-09-10T14:52:17.994Z,2.00
2018-09-10T14:57:21.365Z,1.50
2018-09-10T15:02:24.766Z,1.72
2018-09-10T15:07:28.108Z,1.30
2018-09-10T15:12:31.467Z,1.42
2018-09-10T15:17:34.837Z,1.70
2018-09-10T15:22:38.218Z,1.40
2018-09-10T15:27:41.758Z,1.65
2018-09-10T15:32:45.561Z,1.82
2018-09-10T15:38:01.227Z,2.20
2018-09-10T15:43:04.614Z,1.70
2018-09-10T15:48:08.019Z,1.60
2018-09-10T15:53:11.416Z,2.00
2018-09-10T15:58:14.746Z,1.82
2018-09-10T16:03:18.736Z,2.15
2018-09-10T16:08:22.153Z,2.20
2018-09-10T16:13:25.489Z,2.05
2018-09-10T16:18:28.847Z,2.25
2018-09-10T16:23:32.203Z,2.05
2018-09-10T16:28:36.266Z,2.08
2018-09-10T16:33:40.103Z,2.35
2018-09-10T16:38:43.446Z,2.20
2018-09-10T16:43:46.902Z,2.45
2018-09-10T16:48:50.230Z,2.07
2018-09-10T16:53:53.603Z,2.92
2018-09-10T16:58:56.995Z,2.83
2018-09-10T17:04:00.424Z,3.58
2018-09-10T17:09:04.171Z,3.27
2018-09-10T17:14:07.823Z,4.53
2018-09-10T17:19:11.177Z,5.53
2018-09-10T17:24:14.610Z,9.80
2018-09-10T17:29:17.989Z,6.63
2018-09-10T17:34:21.467Z,4.20
2018-09-10T17:39:24.832Z,4.08
2018-09-10T17:44:28.193Z,3.22
2018-09-10T17:49:31.654Z,3.10
2018-09-10T17:54:35.298Z,2.60
2018-09-10T17:59:39.384Z,2.50
2018-09-10T18:04:43.516Z,3.08
2018-09-10T18:09:48.548Z,2.90
2018-09-10T18:14:52.226Z,2.43
2018-09-10T18:19:55.587Z,3.00
2018-09-10T18:24:59.055Z,2.97
2018-09-10T18:30:02.574Z,3.30
2018-09-10T18:40:24.251Z,2.77
2018-09-10T18:45:27.712Z,3.30
2018-09-10T18:50:31.398Z,2.70
2018-09-10T18:55:34.967Z,3.27
2018-09-10T19:08:13.293Z,3.30
2018-09-10T19:13:16.743Z,3.47
2018-09-10T19:18:20.331Z,3.33
2018-09-10T19:23:23.804Z,3.30
2018-09-10T19:28:27.563Z,3.60
2018-09-10T19:33:31.398Z,3.63
2018-09-10T19:38:34.807Z,3.13
2018-09-10T19:43:38.175Z,3.50
2018-09-10T19:48:41.703Z,2.90
2018-09-10T19:53:45.079Z,3.10
2018-09-10T19:58:48.607Z,3.00
2018-09-10T20:03:53.190Z,3.53
2018-09-10T20:08:56.846Z,3.17
2018-09-10T20:14:00.625Z,3.27
2018-09-10T20:19:04.152Z,3.20
2018-09-10T20:24:07.896Z,3.10
2018-09-10T20:29:11.530Z,3.10
2018-09-10T20:34:15.384Z,2.90
2018-09-10T20:39:19.090Z,3.07
2018-09-10T20:44:25.700Z,3.23
2018-09-10T20:49:29.291Z,2.73
2018-09-10T20:54:32.867Z,2.80
2018-09-10T20:59:36.510Z,2.57
2018-09-10T21:04:40.051Z,2.40
2018-09-10T21:09:43.596Z,3.00
2018-09-10T21:14:46.976Z,2.80
2018-09-10T21:19:50.698Z,3.40
2018-09-10T21:24:54.113Z,3.07
2018-09-10T21:29:57.674Z,3.03
2018-09-10T21:35:01.254Z,2.93
2018-09-10T21:40:04.758Z,3.10
2018-09-10T21:45:08.441Z,2.73
2018-09-10T21:50:12.550Z,3.27
2018-09-10T21:55:15.947Z,3.03
2018-09-10T22:00:19.404Z,2.73
2018-09-10T22:05:22.803Z,2.70
2018-09-10T22:10:27.122Z,3.07
2018-09-10T22:15:30.615Z,2.87
2018-09-10T22:20:34.237Z,2.90
2018-09-10T22:25:37.749Z,2.87
2018-09-10T22:30:41.123Z,2.90
2018-09-10T22:35:44.601Z,2.40
2018-09-10T22:40:47.949Z,2.70
2018-09-10T22:45:51.504Z,2.67
2018-09-10T22:50:54.934Z,2.77
2018-09-10T22:55:58.313Z,2.60
2018-09-10T23:01:01.687Z,2.27
2018-09-10T23:06:05.093Z,2.10
2018-09-10T23:11:08.494Z,2.22
2018-09-10T23:16:11.875Z,2.45
2018-09-10T23:21:15.315Z,2.30
2018-09-10T23:26:18.763Z,2.43
2018-09-10T23:31:22.223Z,2.40
2018-09-10T23:36:25.681Z,2.17
2018-09-10T23:41:29.175Z,2.50
2018-09-10T23:46:32.692Z,2.30
2018-09-10T23:51:36.042Z,2.23
2018-09-10T23:56:39.399Z,2.40
